sensor_id;sensor_type;location;lat;lon;timestamp;P1;durP1;ratioP1;P2;durP2;ratioP2
21729;SDS011;11027;51.030;13.812;2023-07-20T00:00:47;7.78;;;2.80;;
21729;SDS011;11027;51.030;13.812;2023-07-20T00:03:12;5.18;;;2.47;;
21729;SDS011;11027;51.030;13.812;2023-07-20T00:05:42;5.93;;;2.50;;
21729;SDS011;11027;51.030;13.812;2023-07-20T00:08:08;3.90;;;2.20;;
21729;SDS011;11027;51.030;13.812;2023-07-20T00:10:33;5.47;;;2.55;;
21729;SDS011;11027;51.030;13.812;2023-07-20T00:12:58;7.88;;;2.55;;
21729;SDS011;11027;51.030;13.812;2023-07-20T00:15:24;3.08;;;2.17;;
21729;SDS011;11027;51.030;13.812;2023-07-20T00:17:49;6.32;;;2.60;;
21729;SDS011;11027;51.030;13.812;2023-07-20T00:20:14;4.93;;;2.72;;
21729;SDS011;11027;51.030;13.812;2023-07-20T00:22:39;8.63;;;2.30;;
21729;SDS011;11027;51.030;13.812;2023-07-20T00:25:05;5.50;;;2.33;;
21729;SDS011;11027;51.030;13.812;2023-07-20T00:27:30;2.90;;;2.15;;
21729;SDS011;11027;51.030;13.812;2023-07-20T00:29:55;4.05;;;2.38;;
21729;SDS011;11027;51.030;13.812;2023-07-20T00:32:21;3.90;;;2.15;;
21729;SDS011;11027;51.030;13.812;2023-07-20T00:34:46;3.92;;;2.17;;
21729;SDS011;11027;51.030;13.812;2023-07-20T00:37:11;4.18;;;2.30;;
21729;SDS011;11027;51.030;13.812;2023-07-20T00:39:37;5.22;;;1.90;;
21729;SDS011;11027;51.030;13.812;2023-07-20T00:42:02;3.38;;;2.05;;
21729;SDS011;11027;51.030;13.812;2023-07-20T00:44:28;5.10;;;2.13;;
21729;SDS011;11027;51.030;13.812;2023-07-20T00:46:53;4.45;;;1.85;;
21729;SDS011;11027;51.030;13.812;2023-07-20T00:49:19;4.47;;;1.90;;
21729;SDS011;11027;51.030;13.812;2023-07-20T00:51:46;3.50;;;1.73;;
21729;SDS011;11027;51.030;13.812;2023-07-20T00:54:13;3.25;;;1.83;;
21729;SDS011;11027;51.030;13.812;2023-07-20T00:56:40;2.88;;;1.70;;
21729;SDS011;11027;51.030;13.812;2023-07-20T00:59:05;3.65;;;1.75;;
21729;SDS011;11027;51.030;13.812;2023-07-20T01:01:30;4.05;;;1.77;;
21729;SDS011;11027;51.030;13.812;2023-07-20T01:03:56;3.58;;;1.67;;
21729;SDS011;11027;51.030;13.812;2023-07-20T01:06:30;3.22;;;1.60;;
21729;SDS011;11027;51.030;13.812;2023-07-20T01:09:19;3.00;;;1.50;;
21729;SDS011;11027;51.030;13.812;2023-07-20T01:14:28;2.85;;;1.65;;
21729;SDS011;11027;51.030;13.812;2023-07-20T01:16:54;1.95;;;1.48;;
21729;SDS011;11027;51.030;13.812;2023-07-20T01:19:20;5.72;;;1.70;;
21729;SDS011;11027;51.030;13.812;2023-07-20T01:21:50;4.20;;;1.30;;
21729;SDS011;11027;51.030;13.812;2023-07-20T01:24:26;1.95;;;1.40;;
21729;SDS011;11027;51.030;13.812;2023-07-20T01:27:22;2.13;;;1.25;;
21729;SDS011;11027;51.030;13.812;2023-07-20T01:32:36;2.88;;;1.23;;
21729;SDS011;11027;51.030;13.812;2023-07-20T01:35:05;1.65;;;0.90;;
21729;SDS011;11027;51.030;13.812;2023-07-20T01:37:32;5.07;;;1.40;;
21729;SDS011;11027;51.030;13.812;2023-07-20T01:39:59;2.50;;;1.23;;
21729;SDS011;11027;51.030;13.812;2023-07-20T01:42:25;3.97;;;1.10;;
21729;SDS011;11027;51.030;13.812;2023-07-20T01:44:51;4.25;;;1.25;;
21729;SDS011;11027;51.030;13.812;2023-07-20T01:47:17;2.17;;;1.00;;
21729;SDS011;11027;51.030;13.812;2023-07-20T01:49:42;1.90;;;1.00;;
21729;SDS011;11027;51.030;13.812;2023-07-20T01:52:08;4.43;;;1.20;;
21729;SDS011;11027;51.030;13.812;2023-07-20T01:54:33;4.15;;;1.30;;
21729;SDS011;11027;51.030;13.812;2023-07-20T01:56:58;6.28;;;1.63;;
21729;SDS011;11027;51.030;13.812;2023-07-20T01:59:24;3.88;;;1.55;;
21729;SDS011;11027;51.030;13.812;2023-07-20T02:01:49;2.17;;;1.45;;
21729;SDS011;11027;51.030;13.812;2023-07-20T02:04:14;5.85;;;1.95;;
21729;SDS011;11027;51.030;13.812;2023-07-20T02:06:39;4.60;;;2.03;;
21729;SDS011;11027;51.030;13.812;2023-07-20T02:09:05;6.47;;;1.60;;
21729;SDS011;11027;51.030;13.812;2023-07-20T02:11:30;2.90;;;1.85;;
21729;SDS011;11027;51.030;13.812;2023-07-20T02:13:56;4.85;;;2.13;;
21729;SDS011;11027;51.030;13.812;2023-07-20T02:16:21;7.38;;;1.95;;
21729;SDS011;11027;51.030;13.812;2023-07-20T02:18:46;6.20;;;1.88;;
21729;SDS011;11027;51.030;13.812;2023-07-20T02:21:12;5.22;;;2.40;;
21729;SDS011;11027;51.030;13.812;2023-07-20T02:23:37;5.30;;;2.25;;
21729;SDS011;11027;51.030;13.812;2023-07-20T02:26:02;6.70;;;2.28;;
21729;SDS011;11027;51.030;13.812;2023-07-20T02:28:28;6.85;;;2.50;;
21729;SDS011;11027;51.030;13.812;2023-07-20T02:30:54;6.97;;;2.28;;
21729;SDS011;11027;51.030;13.812;2023-07-20T02:33:19;6.10;;;2.90;;
21729;SDS011;11027;51.030;13.812;2023-07-20T02:35:45;4.63;;;2.20;;
21729;SDS011;11027;51.030;13.812;2023-07-20T02:38:11;3.65;;;2.60;;
21729;SDS011;11027;51.030;13.812;2023-07-20T02:40:36;3.70;;;2.40;;
21729;SDS011;11027;51.030;13.812;2023-07-20T02:43:01;5.72;;;2.47;;
21729;SDS011;11027;51.030;13.812;2023-07-20T02:45:26;6.15;;;2.45;;
21729;SDS011;11027;51.030;13.812;2023-07-20T02:47:52;5.65;;;2.60;;
21729;SDS011;11027;51.030;13.812;2023-07-20T02:50:17;6.57;;;3.15;;
21729;SDS011;11027;51.030;13.812;2023-07-20T02:52:42;3.20;;;2.30;;
21729;SDS011;11027;51.030;13.812;2023-07-20T02:55:08;8.88;;;2.67;;
21729;SDS011;11027;51.030;13.812;2023-07-20T02:57:33;8.57;;;2.92;;
21729;SDS011;11027;51.030;13.812;2023-07-20T02:59:58;6.00;;;2.78;;
21729;SDS011;11027;51.030;13.812;2023-07-20T03:02:24;5.63;;;2.30;;
21729;SDS011;11027;51.030;13.812;2023-07-20T03:04:49;5.20;;;2.72;;
21729;SDS011;11027;51.030;13.812;2023-07-20T03:07:15;6.22;;;3.00;;
21729;SDS011;11027;51.030;13.812;2023-07-20T03:09:40;6.10;;;2.80;;
21729;SDS011;11027;51.030;13.812;2023-07-20T03:12:06;7.53;;;2.90;;
21729;SDS011;11027;51.030;13.812;2023-07-20T03:14:31;5.95;;;2.80;;
21729;SDS011;11027;51.030;13.812;2023-07-20T03:16:57;6.18;;;2.90;;
21729;SDS011;11027;51.030;13.812;2023-07-20T03:19:22;5.20;;;3.13;;
21729;SDS011;11027;51.030;13.812;2023-07-20T03:21:47;8.15;;;2.72;;
21729;SDS011;11027;51.030;13.812;2023-07-20T03:24:13;8.95;;;3.17;;
21729;SDS011;11027;51.030;13.812;2023-07-20T03:26:38;6.53;;;3.13;;
21729;SDS011;11027;51.030;13.812;2023-07-20T03:29:03;5.65;;;2.85;;
21729;SDS011;11027;51.030;13.812;2023-07-20T03:31:29;10.77;;;3.33;;
21729;SDS011;11027;51.030;13.812;2023-07-20T03:33:55;5.70;;;3.15;;
21729;SDS011;11027;51.030;13.812;2023-07-20T03:36:20;6.10;;;3.10;;
21729;SDS011;11027;51.030;13.812;2023-07-20T03:38:45;5.03;;;3.10;;
21729;SDS011;11027;51.030;13.812;2023-07-20T03:41:10;7.00;;;3.28;;
21729;SDS011;11027;51.030;13.812;2023-07-20T03:43:36;7.28;;;3.17;;
21729;SDS011;11027;51.030;13.812;2023-07-20T03:46:02;7.85;;;3.45;;
21729;SDS011;11027;51.030;13.812;2023-07-20T03:48:31;12.48;;;3.90;;
21729;SDS011;11027;51.030;13.812;2023-07-20T03:50:56;8.70;;;3.30;;
21729;SDS011;11027;51.030;13.812;2023-07-20T03:53:22;9.20;;;3.17;;
21729;SDS011;11027;51.030;13.812;2023-07-20T03:55:47;9.25;;;3.20;;
21729;SDS011;11027;51.030;13.812;2023-07-20T03:58:15;9.30;;;3.10;;
21729;SDS011;11027;51.030;13.812;2023-07-20T04:00:47;6.75;;;3.33;;
21729;SDS011;11027;51.030;13.812;2023-07-20T04:03:15;8.10;;;3.00;;
21729;SDS011;11027;51.030;13.812;2023-07-20T04:05:40;9.07;;;3.33;;
21729;SDS011;11027;51.030;13.812;2023-07-20T04:08:06;7.70;;;3.20;;
21729;SDS011;11027;51.030;13.812;2023-07-20T04:10:31;8.05;;;3.28;;
21729;SDS011;11027;51.030;13.812;2023-07-20T04:12:56;5.93;;;3.25;;
21729;SDS011;11027;51.030;13.812;2023-07-20T04:15:22;5.45;;;3.47;;
21729;SDS011;11027;51.030;13.812;2023-07-20T04:17:47;7.70;;;3.30;;
21729;SDS011;11027;51.030;13.812;2023-07-20T04:20:12;5.28;;;3.42;;
21729;SDS011;11027;51.030;13.812;2023-07-20T04:22:38;8.20;;;3.38;;
21729;SDS011;11027;51.030;13.812;2023-07-20T04:25:03;7.38;;;3.58;;
21729;SDS011;11027;51.030;13.812;2023-07-20T04:27:29;9.18;;;3.40;;
21729;SDS011;11027;51.030;13.812;2023-07-20T04:29:54;7.68;;;3.25;;
21729;SDS011;11027;51.030;13.812;2023-07-20T04:32:19;7.93;;;3.35;;
21729;SDS011;11027;51.030;13.812;2023-07-20T04:34:45;8.55;;;3.50;;
21729;SDS011;11027;51.030;13.812;2023-07-20T04:37:10;8.00;;;3.65;;
21729;SDS011;11027;51.030;13.812;2023-07-20T04:39:35;7.07;;;3.55;;
21729;SDS011;11027;51.030;13.812;2023-07-20T04:42:00;6.85;;;3.63;;
21729;SDS011;11027;51.030;13.812;2023-07-20T04:44:26;9.82;;;3.25;;
21729;SDS011;11027;51.030;13.812;2023-07-20T04:46:51;7.55;;;3.60;;
21729;SDS011;11027;51.030;13.812;2023-07-20T04:49:16;9.00;;;3.60;;
21729;SDS011;11027;51.030;13.812;2023-07-20T04:51:41;7.32;;;3.53;;
21729;SDS011;11027;51.030;13.812;2023-07-20T04:54:07;9.13;;;4.20;;
21729;SDS011;11027;51.030;13.812;2023-07-20T04:56:32;7.20;;;3.88;;
21729;SDS011;11027;51.030;13.812;2023-07-20T04:58:58;10.32;;;4.07;;
21729;SDS011;11027;51.030;13.812;2023-07-20T05:01:23;9.65;;;4.40;;
21729;SDS011;11027;51.030;13.812;2023-07-20T05:03:49;6.32;;;3.97;;
21729;SDS011;11027;51.030;13.812;2023-07-20T05:06:15;8.75;;;4.00;;
21729;SDS011;11027;51.030;13.812;2023-07-20T05:08:40;9.15;;;4.70;;
21729;SDS011;11027;51.030;13.812;2023-07-20T05:11:06;7.28;;;4.32;;
21729;SDS011;11027;51.030;13.812;2023-07-20T05:13:32;9.07;;;4.60;;
21729;SDS011;11027;51.030;13.812;2023-07-20T05:15:57;8.95;;;4.55;;
21729;SDS011;11027;51.030;13.812;2023-07-20T05:18:23;8.25;;;4.47;;
21729;SDS011;11027;51.030;13.812;2023-07-20T05:20:48;9.63;;;4.13;;
21729;SDS011;11027;51.030;13.812;2023-07-20T05:23:14;16.55;;;4.68;;
21729;SDS011;11027;51.030;13.812;2023-07-20T05:25:42;9.65;;;4.38;;
21729;SDS011;11027;51.030;13.812;2023-07-20T05:28:07;14.80;;;4.22;;
21729;SDS011;11027;51.030;13.812;2023-07-20T05:30:33;13.98;;;4.35;;
21729;SDS011;11027;51.030;13.812;2023-07-20T05:32:58;9.05;;;4.20;;
21729;SDS011;11027;51.030;13.812;2023-07-20T05:35:23;8.02;;;4.28;;
21729;SDS011;11027;51.030;13.812;2023-07-20T05:37:48;10.52;;;4.03;;
21729;SDS011;11027;51.030;13.812;2023-07-20T05:40:14;13.75;;;4.07;;
21729;SDS011;11027;51.030;13.812;2023-07-20T05:42:43;10.23;;;4.18;;
21729;SDS011;11027;51.030;13.812;2023-07-20T05:45:09;11.05;;;4.10;;
21729;SDS011;11027;51.030;13.812;2023-07-20T05:47:34;6.78;;;3.92;;
21729;SDS011;11027;51.030;13.812;2023-07-20T05:50:00;6.07;;;3.40;;
21729;SDS011;11027;51.030;13.812;2023-07-20T05:52:25;6.28;;;3.28;;
21729;SDS011;11027;51.030;13.812;2023-07-20T05:54:50;13.35;;;3.45;;
21729;SDS011;11027;51.030;13.812;2023-07-20T05:57:16;6.72;;;3.25;;
21729;SDS011;11027;51.030;13.812;2023-07-20T05:59:41;7.57;;;3.13;;
21729;SDS011;11027;51.030;13.812;2023-07-20T06:02:09;8.45;;;3.40;;
21729;SDS011;11027;51.030;13.812;2023-07-20T06:04:34;22.80;;;4.55;;
21729;SDS011;11027;51.030;13.812;2023-07-20T06:07:00;25.10;;;4.40;;
21729;SDS011;11027;51.030;13.812;2023-07-20T06:09:25;8.48;;;3.78;;
21729;SDS011;11027;51.030;13.812;2023-07-20T06:11:52;9.85;;;3.50;;
21729;SDS011;11027;51.030;13.812;2023-07-20T06:14:17;10.63;;;3.58;;
21729;SDS011;11027;51.030;13.812;2023-07-20T06:16:43;12.07;;;4.13;;
21729;SDS011;11027;51.030;13.812;2023-07-20T06:19:08;12.27;;;4.10;;
21729;SDS011;11027;51.030;13.812;2023-07-20T06:21:36;9.85;;;3.70;;
21729;SDS011;11027;51.030;13.812;2023-07-20T06:24:01;25.25;;;4.70;;
21729;SDS011;11027;51.030;13.812;2023-07-20T06:26:26;19.50;;;4.07;;
21729;SDS011;11027;51.030;13.812;2023-07-20T06:28:51;26.98;;;4.30;;
21729;SDS011;11027;51.030;13.812;2023-07-20T06:31:17;24.75;;;4.93;;
21729;SDS011;11027;51.030;13.812;2023-07-20T06:33:42;16.33;;;5.60;;
21729;SDS011;11027;51.030;13.812;2023-07-20T06:36:08;15.10;;;6.40;;
21729;SDS011;11027;51.030;13.812;2023-07-20T06:38:34;14.55;;;7.28;;
21729;SDS011;11027;51.030;13.812;2023-07-20T06:41:00;12.57;;;6.38;;
21729;SDS011;11027;51.030;13.812;2023-07-20T06:43:25;10.85;;;5.10;;
21729;SDS011;11027;51.030;13.812;2023-07-20T06:45:51;10.50;;;4.40;;
21729;SDS011;11027;51.030;13.812;2023-07-20T06:48:18;10.07;;;4.63;;
21729;SDS011;11027;51.030;13.812;2023-07-20T06:50:43;9.88;;;4.68;;
21729;SDS011;11027;51.030;13.812;2023-07-20T06:53:09;5.22;;;4.47;;
21729;SDS011;11027;51.030;13.812;2023-07-20T06:55:34;10.15;;;5.30;;
21729;SDS011;11027;51.030;13.812;2023-07-20T06:57:59;5.40;;;3.85;;
21729;SDS011;11027;51.030;13.812;2023-07-20T07:00:24;6.45;;;4.18;;
21729;SDS011;11027;51.030;13.812;2023-07-20T07:02:50;7.63;;;4.20;;
21729;SDS011;11027;51.030;13.812;2023-07-20T07:05:15;8.40;;;4.05;;
21729;SDS011;11027;51.030;13.812;2023-07-20T07:07:41;7.63;;;3.70;;
21729;SDS011;11027;51.030;13.812;2023-07-20T07:10:06;6.25;;;4.13;;
21729;SDS011;11027;51.030;13.812;2023-07-20T07:12:33;7.88;;;3.95;;
21729;SDS011;11027;51.030;13.812;2023-07-20T07:14:59;7.18;;;4.00;;
21729;SDS011;11027;51.030;13.812;2023-07-20T07:17:24;10.00;;;3.17;;
21729;SDS011;11027;51.030;13.812;2023-07-20T07:19:51;9.63;;;2.75;;
21729;SDS011;11027;51.030;13.812;2023-07-20T07:22:19;4.15;;;2.33;;
21729;SDS011;11027;51.030;13.812;2023-07-20T07:24:44;3.90;;;2.58;;
21729;SDS011;11027;51.030;13.812;2023-07-20T07:27:10;9.50;;;2.78;;
21729;SDS011;11027;51.030;13.812;2023-07-20T07:29:35;13.68;;;2.72;;
21729;SDS011;11027;51.030;13.812;2023-07-20T07:32:00;13.10;;;2.60;;
21729;SDS011;11027;51.030;13.812;2023-07-20T07:34:26;7.20;;;2.28;;
21729;SDS011;11027;51.030;13.812;2023-07-20T07:36:52;8.10;;;2.83;;
21729;SDS011;11027;51.030;13.812;2023-07-20T07:39:17;6.13;;;2.80;;
21729;SDS011;11027;51.030;13.812;2023-07-20T07:41:42;4.82;;;2.70;;
21729;SDS011;11027;51.030;13.812;2023-07-20T07:44:07;2.53;;;2.30;;
21729;SDS011;11027;51.030;13.812;2023-07-20T07:46:33;6.15;;;2.85;;
21729;SDS011;11027;51.030;13.812;2023-07-20T07:48:58;5.20;;;3.17;;
21729;SDS011;11027;51.030;13.812;2023-07-20T07:51:23;7.68;;;2.70;;
21729;SDS011;11027;51.030;13.812;2023-07-20T07:53:49;6.00;;;2.65;;
21729;SDS011;11027;51.030;13.812;2023-07-20T07:56:14;6.03;;;2.58;;
21729;SDS011;11027;51.030;13.812;2023-07-20T07:58:41;5.00;;;2.50;;
21729;SDS011;11027;51.030;13.812;2023-07-20T08:01:06;6.32;;;2.28;;
21729;SDS011;11027;51.030;13.812;2023-07-20T08:03:32;4.63;;;2.30;;
21729;SDS011;11027;51.030;13.812;2023-07-20T08:05:57;4.68;;;2.08;;
21729;SDS011;11027;51.030;13.812;2023-07-20T08:08:24;4.82;;;2.30;;
21729;SDS011;11027;51.030;13.812;2023-07-20T08:10:50;2.80;;;2.33;;
21729;SDS011;11027;51.030;13.812;2023-07-20T08:13:17;4.80;;;2.50;;
21729;SDS011;11027;51.030;13.812;2023-07-20T08:15:51;3.90;;;2.70;;
21729;SDS011;11027;51.030;13.812;2023-07-20T08:18:17;4.13;;;2.75;;
21729;SDS011;11027;51.030;13.812;2023-07-20T08:20:45;2.72;;;2.20;;
21729;SDS011;11027;51.030;13.812;2023-07-20T08:23:11;3.58;;;2.80;;
21729;SDS011;11027;51.030;13.812;2023-07-20T08:25:37;5.40;;;3.03;;
21729;SDS011;11027;51.030;13.812;2023-07-20T08:28:04;3.75;;;3.38;;
21729;SDS011;11027;51.030;13.812;2023-07-20T08:30:39;6.45;;;2.90;;
21729;SDS011;11027;51.030;13.812;2023-07-20T08:33:09;5.55;;;3.40;;
21729;SDS011;11027;51.030;13.812;2023-07-20T08:35:35;4.88;;;2.90;;
21729;SDS011;11027;51.030;13.812;2023-07-20T08:38:00;5.85;;;3.08;;
21729;SDS011;11027;51.030;13.812;2023-07-20T08:40:26;6.03;;;2.80;;
21729;SDS011;11027;51.030;13.812;2023-07-20T08:42:51;3.88;;;3.45;;
21729;SDS011;11027;51.030;13.812;2023-07-20T08:45:19;4.63;;;3.35;;
21729;SDS011;11027;51.030;13.812;2023-07-20T08:47:45;3.95;;;3.20;;
21729;SDS011;11027;51.030;13.812;2023-07-20T08:50:12;3.08;;;2.80;;
21729;SDS011;11027;51.030;13.812;2023-07-20T08:52:38;5.57;;;3.58;;
21729;SDS011;11027;51.030;13.812;2023-07-20T08:55:04;7.88;;;3.80;;
21729;SDS011;11027;51.030;13.812;2023-07-20T08:57:31;7.93;;;3.90;;
21729;SDS011;11027;51.030;13.812;2023-07-20T08:59:58;5.72;;;3.70;;
21729;SDS011;11027;51.030;13.812;2023-07-20T09:02:25;7.20;;;4.07;;
21729;SDS011;11027;51.030;13.812;2023-07-20T09:04:52;5.57;;;3.58;;
21729;SDS011;11027;51.030;13.812;2023-07-20T09:07:17;5.30;;;2.90;;
21729;SDS011;11027;51.030;13.812;2023-07-20T09:09:45;4.85;;;2.88;;
21729;SDS011;11027;51.030;13.812;2023-07-20T09:12:13;3.22;;;2.58;;
21729;SDS011;11027;51.030;13.812;2023-07-20T09:14:42;4.50;;;2.10;;
21729;SDS011;11027;51.030;13.812;2023-07-20T09:17:11;2.80;;;2.17;;
21729;SDS011;11027;51.030;13.812;2023-07-20T09:19:38;2.72;;;1.98;;
21729;SDS011;11027;51.030;13.812;2023-07-20T09:22:03;2.85;;;2.20;;
21729;SDS011;11027;51.030;13.812;2023-07-20T09:24:30;3.25;;;2.33;;
21729;SDS011;11027;51.030;13.812;2023-07-20T09:26:56;3.83;;;2.10;;
21729;SDS011;11027;51.030;13.812;2023-07-20T09:29:22;3.58;;;2.13;;
21729;SDS011;11027;51.030;13.812;2023-07-20T09:32:00;4.60;;;2.40;;
21729;SDS011;11027;51.030;13.812;2023-07-20T09:34:26;4.20;;;3.20;;
21729;SDS011;11027;51.030;13.812;2023-07-20T09:36:52;3.83;;;2.15;;
21729;SDS011;11027;51.030;13.812;2023-07-20T09:39:17;2.17;;;1.90;;
21729;SDS011;11027;51.030;13.812;2023-07-20T09:41:43;4.55;;;2.20;;
21729;SDS011;11027;51.030;13.812;2023-07-20T09:44:08;2.80;;;2.10;;
21729;SDS011;11027;51.030;13.812;2023-07-20T09:46:43;2.60;;;1.90;;
21729;SDS011;11027;51.030;13.812;2023-07-20T09:49:09;6.18;;;2.10;;
21729;SDS011;11027;51.030;13.812;2023-07-20T09:51:34;5.70;;;2.10;;
21729;SDS011;11027;51.030;13.812;2023-07-20T09:54:01;16.00;;;3.00;;
21729;SDS011;11027;51.030;13.812;2023-07-20T09:56:28;6.72;;;2.42;;
21729;SDS011;11027;51.030;13.812;2023-07-20T09:58:55;12.20;;;2.65;;
21729;SDS011;11027;51.030;13.812;2023-07-20T10:01:21;18.70;;;3.28;;
21729;SDS011;11027;51.030;13.812;2023-07-20T10:03:47;11.40;;;2.88;;
21729;SDS011;11027;51.030;13.812;2023-07-20T10:06:17;2.53;;;1.98;;
21729;SDS011;11027;51.030;13.812;2023-07-20T10:08:49;3.05;;;2.17;;
21729;SDS011;11027;51.030;13.812;2023-07-20T10:11:21;5.43;;;1.98;;
21729;SDS011;11027;51.030;13.812;2023-07-20T10:13:49;4.45;;;2.35;;
21729;SDS011;11027;51.030;13.812;2023-07-20T10:16:22;3.53;;;3.10;;
21729;SDS011;11027;51.030;13.812;2023-07-20T10:18:53;6.60;;;4.05;;
21729;SDS011;11027;51.030;13.812;2023-07-20T10:21:23;1.67;;;1.35;;
21729;SDS011;11027;51.030;13.812;2023-07-20T10:23:49;1.50;;;1.17;;
21729;SDS011;11027;51.030;13.812;2023-07-20T10:26:15;3.63;;;2.10;;
21729;SDS011;11027;51.030;13.812;2023-07-20T10:28:40;5.18;;;2.40;;
21729;SDS011;11027;51.030;13.812;2023-07-20T10:31:10;2.97;;;2.55;;
21729;SDS011;11027;51.030;13.812;2023-07-20T10:33:37;5.65;;;2.70;;
21729;SDS011;11027;51.030;13.812;2023-07-20T10:36:04;4.78;;;3.05;;
21729;SDS011;11027;51.030;13.812;2023-07-20T10:43:46;6.43;;;3.50;;
21729;SDS011;11027;51.030;13.812;2023-07-20T10:46:13;6.65;;;3.35;;
21729;SDS011;11027;51.030;13.812;2023-07-20T10:51:27;7.05;;;3.10;;
21729;SDS011;11027;51.030;13.812;2023-07-20T10:53:52;3.42;;;2.75;;
21729;SDS011;11027;51.030;13.812;2023-07-20T10:56:22;3.30;;;3.00;;
21729;SDS011;11027;51.030;13.812;2023-07-20T10:58:50;4.85;;;2.97;;
21729;SDS011;11027;51.030;13.812;2023-07-20T11:01:21;3.15;;;2.42;;
21729;SDS011;11027;51.030;13.812;2023-07-20T11:03:56;2.78;;;2.50;;
21729;SDS011;11027;51.030;13.812;2023-07-20T11:09:06;3.47;;;1.90;;
21729;SDS011;11027;51.030;13.812;2023-07-20T11:11:35;2.63;;;2.00;;
21729;SDS011;11027;51.030;13.812;2023-07-20T11:14:03;3.50;;;1.80;;
21729;SDS011;11027;51.030;13.812;2023-07-20T11:18:59;3.22;;;2.03;;
21729;SDS011;11027;51.030;13.812;2023-07-20T11:21:24;2.60;;;1.80;;
21729;SDS011;11027;51.030;13.812;2023-07-20T11:23:51;2.65;;;2.15;;
21729;SDS011;11027;51.030;13.812;2023-07-20T11:26:17;4.65;;;3.50;;
21729;SDS011;11027;51.030;13.812;2023-07-20T11:28:43;2.70;;;2.50;;
21729;SDS011;11027;51.030;13.812;2023-07-20T11:31:08;2.60;;;2.40;;
21729;SDS011;11027;51.030;13.812;2023-07-20T11:33:33;15.20;;;3.33;;
21729;SDS011;11027;51.030;13.812;2023-07-20T11:35:58;11.73;;;2.80;;
21729;SDS011;11027;51.030;13.812;2023-07-20T11:38:24;3.35;;;2.08;;
21729;SDS011;11027;51.030;13.812;2023-07-20T11:40:49;2.47;;;2.28;;
21729;SDS011;11027;51.030;13.812;2023-07-20T11:43:15;2.60;;;2.40;;
21729;SDS011;11027;51.030;13.812;2023-07-20T11:45:40;3.33;;;2.60;;
21729;SDS011;11027;51.030;13.812;2023-07-20T11:48:06;3.28;;;2.58;;
21729;SDS011;11027;51.030;13.812;2023-07-20T11:50:31;2.33;;;2.10;;
21729;SDS011;11027;51.030;13.812;2023-07-20T11:52:57;2.78;;;2.13;;
21729;SDS011;11027;51.030;13.812;2023-07-20T11:55:22;5.53;;;1.88;;
21729;SDS011;11027;51.030;13.812;2023-07-20T11:58:04;10.90;;;2.33;;
21729;SDS011;11027;51.030;13.812;2023-07-20T12:00:30;2.25;;;1.90;;
21729;SDS011;11027;51.030;13.812;2023-07-20T12:02:57;2.28;;;1.70;;
21729;SDS011;11027;51.030;13.812;2023-07-20T12:05:22;2.20;;;2.00;;
21729;SDS011;11027;51.030;13.812;2023-07-20T12:07:48;11.13;;;2.55;;
21729;SDS011;11027;51.030;13.812;2023-07-20T12:10:16;4.90;;;2.30;;
21729;SDS011;11027;51.030;13.812;2023-07-20T12:12:50;4.13;;;1.90;;
21729;SDS011;11027;51.030;13.812;2023-07-20T12:15:25;4.97;;;2.33;;
21729;SDS011;11027;51.030;13.812;2023-07-20T12:17:58;9.00;;;2.38;;
21729;SDS011;11027;51.030;13.812;2023-07-20T12:22:55;11.52;;;2.22;;
21729;SDS011;11027;51.030;13.812;2023-07-20T12:25:22;5.78;;;1.75;;
21729;SDS011;11027;51.030;13.812;2023-07-20T12:27:47;11.77;;;2.85;;
21729;SDS011;11027;51.030;13.812;2023-07-20T12:30:13;6.28;;;2.42;;
21729;SDS011;11027;51.030;13.812;2023-07-20T12:32:39;4.70;;;2.38;;
21729;SDS011;11027;51.030;13.812;2023-07-20T12:35:04;6.32;;;2.58;;
21729;SDS011;11027;51.030;13.812;2023-07-20T12:37:31;7.07;;;3.03;;
21729;SDS011;11027;51.030;13.812;2023-07-20T12:39:56;8.02;;;3.17;;
21729;SDS011;11027;51.030;13.812;2023-07-20T12:42:21;5.18;;;3.53;;
21729;SDS011;11027;51.030;13.812;2023-07-20T12:44:48;7.57;;;3.28;;
21729;SDS011;11027;51.030;13.812;2023-07-20T12:47:15;4.43;;;2.92;;
21729;SDS011;11027;51.030;13.812;2023-07-20T12:49:41;3.72;;;3.30;;
21729;SDS011;11027;51.030;13.812;2023-07-20T12:52:10;4.97;;;3.85;;
21729;SDS011;11027;51.030;13.812;2023-07-20T12:54:35;14.63;;;3.15;;
21729;SDS011;11027;51.030;13.812;2023-07-20T12:57:00;9.20;;;3.00;;
21729;SDS011;11027;51.030;13.812;2023-07-20T12:59:27;4.95;;;2.33;;
21729;SDS011;11027;51.030;13.812;2023-07-20T13:01:52;3.05;;;2.25;;
21729;SDS011;11027;51.030;13.812;2023-07-20T13:04:17;2.47;;;2.28;;
21729;SDS011;11027;51.030;13.812;2023-07-20T13:06:42;3.50;;;1.80;;
21729;SDS011;11027;51.030;13.812;2023-07-20T13:09:08;1.90;;;1.80;;
21729;SDS011;11027;51.030;13.812;2023-07-20T13:11:33;2.88;;;1.98;;
21729;SDS011;11027;51.030;13.812;2023-07-20T13:13:58;1.83;;;1.73;;
21729;SDS011;11027;51.030;13.812;2023-07-20T13:16:23;2.20;;;2.00;;
21729;SDS011;11027;51.030;13.812;2023-07-20T13:18:49;2.60;;;1.95;;
21729;SDS011;11027;51.030;13.812;2023-07-20T13:21:14;2.45;;;1.85;;
21729;SDS011;11027;51.030;13.812;2023-07-20T13:23:39;1.80;;;1.70;;
21729;SDS011;11027;51.030;13.812;2023-07-20T13:26:05;6.50;;;1.70;;
21729;SDS011;11027;51.030;13.812;2023-07-20T13:28:30;1.60;;;1.42;;
21729;SDS011;11027;51.030;13.812;2023-07-20T13:30:55;2.13;;;1.58;;
21729;SDS011;11027;51.030;13.812;2023-07-20T13:33:21;2.08;;;1.92;;
21729;SDS011;11027;51.030;13.812;2023-07-20T13:35:46;2.42;;;1.50;;
21729;SDS011;11027;51.030;13.812;2023-07-20T13:38:11;1.70;;;1.60;;
21729;SDS011;11027;51.030;13.812;2023-07-20T13:40:37;1.73;;;1.50;;
21729;SDS011;11027;51.030;13.812;2023-07-20T13:43:02;1.90;;;1.35;;
21729;SDS011;11027;51.030;13.812;2023-07-20T13:45:27;1.95;;;1.08;;
21729;SDS011;11027;51.030;13.812;2023-07-20T13:47:53;2.13;;;1.10;;
21729;SDS011;11027;51.030;13.812;2023-07-20T13:50:18;1.20;;;1.10;;
21729;SDS011;11027;51.030;13.812;2023-07-20T13:52:43;1.77;;;1.30;;
21729;SDS011;11027;51.030;13.812;2023-07-20T13:55:09;1.67;;;1.00;;
21729;SDS011;11027;51.030;13.812;2023-07-20T13:57:34;3.28;;;1.40;;
21729;SDS011;11027;51.030;13.812;2023-07-20T13:59:59;2.13;;;1.10;;
21729;SDS011;11027;51.030;13.812;2023-07-20T14:02:25;1.80;;;1.20;;
21729;SDS011;11027;51.030;13.812;2023-07-20T14:04:51;2.45;;;1.27;;
21729;SDS011;11027;51.030;13.812;2023-07-20T14:07:16;1.45;;;1.35;;
21729;SDS011;11027;51.030;13.812;2023-07-20T14:09:41;1.50;;;1.40;;
21729;SDS011;11027;51.030;13.812;2023-07-20T14:12:07;1.60;;;1.20;;
21729;SDS011;11027;51.030;13.812;2023-07-20T14:14:33;2.75;;;1.17;;
21729;SDS011;11027;51.030;13.812;2023-07-20T14:16:58;1.33;;;1.10;;
21729;SDS011;11027;51.030;13.812;2023-07-20T14:19:24;1.38;;;1.15;;
21729;SDS011;11027;51.030;13.812;2023-07-20T14:21:49;2.15;;;0.80;;
21729;SDS011;11027;51.030;13.812;2023-07-20T14:24:14;1.77;;;1.10;;
21729;SDS011;11027;51.030;13.812;2023-07-20T14:26:40;1.38;;;1.10;;
21729;SDS011;11027;51.030;13.812;2023-07-20T14:29:05;1.98;;;1.02;;
21729;SDS011;11027;51.030;13.812;2023-07-20T14:31:30;1.23;;;0.95;;
21729;SDS011;11027;51.030;13.812;2023-07-20T14:33:55;1.10;;;1.00;;
21729;SDS011;11027;51.030;13.812;2023-07-20T14:36:21;1.63;;;1.05;;
21729;SDS011;11027;51.030;13.812;2023-07-20T14:38:47;2.50;;;1.00;;
21729;SDS011;11027;51.030;13.812;2023-07-20T14:41:13;2.92;;;0.90;;
21729;SDS011;11027;51.030;13.812;2023-07-20T14:43:38;1.48;;;0.90;;
21729;SDS011;11027;51.030;13.812;2023-07-20T14:46:03;1.13;;;0.90;;
21729;SDS011;11027;51.030;13.812;2023-07-20T14:48:29;2.05;;;1.00;;